sensor_id;sensor_type;location;lat;lon;timestamp;pressure;altitude;pressure_sealevel;temperature;humidity
63500;BME280;49654;51.142;14.924;2024-01-30T00:01:40;100544.41;;;3.99;61.50
63500;BME280;49654;51.142;14.924;2024-01-30T00:04:07;100555.88;;;3.93;61.79
63500;BME280;49654;51.142;14.924;2024-01-30T00:06:34;100678.94;;;4.79;61.47
63500;BME280;49654;51.142;14.924;2024-01-30T00:09:00;100695.84;;;4.83;61.76
63500;BME280;49654;51.142;14.924;2024-01-30T00:11:27;100590.28;;;4.05;62.14
63500;BME280;49654;51.142;14.924;2024-01-30T00:13:56;100647.69;;;4.45;61.81
63500;BME280;49654;51.142;14.924;2024-01-30T00:16:24;100684.91;;;4.67;61.81
63500;BME280;49654;51.142;14.924;2024-01-30T00:18:51;100682.09;;;4.57;62.11
63500;BME280;49654;51.142;14.924;2024-01-30T00:21:18;100647.56;;;4.34;62.15
63500;BME280;49654;51.142;14.924;2024-01-30T00:23:45;100690.03;;;4.54;62.64
63500;BME280;49654;51.142;14.924;2024-01-30T00:26:13;100678.59;;;4.58;62.30
63500;BME280;49654;51.142;14.924;2024-01-30T00:28:40;100676.00;;;4.58;62.23
63500;BME280;49654;51.142;14.924;2024-01-30T00:31:09;100700.09;;;4.57;62.46
63500;BME280;49654;51.142;14.924;2024-01-30T00:33:38;100617.25;;;4.12;62.39
63500;BME280;49654;51.142;14.924;2024-01-30T00:36:05;100689.03;;;4.69;62.17
63500;BME280;49654;51.142;14.924;2024-01-30T00:38:32;100619.03;;;4.24;61.92
63500;BME280;49654;51.142;14.924;2024-01-30T00:40:59;100588.81;;;4.01;62.25
63500;BME280;49654;51.142;14.924;2024-01-30T00:43:27;100687.97;;;4.59;61.84
63500;BME280;49654;51.142;14.924;2024-01-30T00:45:54;100683.53;;;4.61;62.24
63500;BME280;49654;51.142;14.924;2024-01-30T00:48:22;100547.59;;;3.75;62.21
63500;BME280;49654;51.142;14.924;2024-01-30T00:50:49;100679.03;;;4.65;62.17
63500;BME280;49654;51.142;14.924;2024-01-30T00:53:16;100680.59;;;4.67;61.85
63500;BME280;49654;51.142;14.924;2024-01-30T00:55:43;100682.53;;;4.64;61.87
63500;BME280;49654;51.142;14.924;2024-01-30T00:58:10;100665.41;;;4.50;61.93
63500;BME280;49654;51.142;14.924;2024-01-30T01:00:37;100685.91;;;4.64;61.75
63500;BME280;49654;51.142;14.924;2024-01-30T01:03:04;100679.31;;;4.60;62.07
63500;BME280;49654;51.142;14.924;2024-01-30T01:05:32;100643.69;;;4.41;61.78
63500;BME280;49654;51.142;14.924;2024-01-30T01:07:59;100675.09;;;4.59;61.85
63500;BME280;49654;51.142;14.924;2024-01-30T01:10:26;100568.97;;;3.76;62.13
63500;BME280;49654;51.142;14.924;2024-01-30T01:12:54;100672.38;;;4.48;62.57
63500;BME280;49654;51.142;14.924;2024-01-30T01:15:21;100682.09;;;4.57;61.96
63500;BME280;49654;51.142;14.924;2024-01-30T01:17:48;100607.00;;;3.98;62.17
63500;BME280;49654;51.142;14.924;2024-01-30T01:20:15;100609.88;;;4.20;62.08
63500;BME280;49654;51.142;14.924;2024-01-30T01:22:43;100545.59;;;3.66;62.03
63500;BME280;49654;51.142;14.924;2024-01-30T01:25:10;100657.28;;;4.56;61.93
63500;BME280;49654;51.142;14.924;2024-01-30T01:27:37;100641.00;;;4.43;61.97
63500;BME280;49654;51.142;14.924;2024-01-30T01:30:08;100663.25;;;4.57;62.17
63500;BME280;49654;51.142;14.924;2024-01-30T01:32:36;100662.63;;;4.53;61.68
63500;BME280;49654;51.142;14.924;2024-01-30T01:35:04;100664.06;;;4.57;61.66
63500;BME280;49654;51.142;14.924;2024-01-30T01:37:32;100549.28;;;3.89;61.59
63500;BME280;49654;51.142;14.924;2024-01-30T01:40:00;100662.88;;;4.63;61.64
63500;BME280;49654;51.142;14.924;2024-01-30T01:42:27;100654.94;;;4.66;61.30
63500;BME280;49654;51.142;14.924;2024-01-30T01:44:54;100657.09;;;4.59;61.62
63500;BME280;49654;51.142;14.924;2024-01-30T01:47:21;100646.19;;;4.56;61.46
63500;BME280;49654;51.142;14.924;2024-01-30T01:49:48;100663.44;;;4.53;61.85
63500;BME280;49654;51.142;14.924;2024-01-30T01:52:16;100588.97;;;4.12;61.90
63500;BME280;49654;51.142;14.924;2024-01-30T01:54:43;100629.84;;;4.30;62.22
63500;BME280;49654;51.142;14.924;2024-01-30T01:57:12;100658.81;;;4.46;62.24
63500;BME280;49654;51.142;14.924;2024-01-30T01:59:39;100632.50;;;4.28;62.23
63500;BME280;49654;51.142;14.924;2024-01-30T02:02:07;100640.78;;;4.33;62.21
63500;BME280;49654;51.142;14.924;2024-01-30T02:04:38;100664.16;;;4.43;62.28
63500;BME280;49654;51.142;14.924;2024-01-30T02:07:05;100667.34;;;4.46;62.32
63500;BME280;49654;51.142;14.924;2024-01-30T02:09:32;100670.59;;;4.36;62.73
63500;BME280;49654;51.142;14.924;2024-01-30T02:11:58;100666.16;;;4.25;63.05
63500;BME280;49654;51.142;14.924;2024-01-30T02:14:27;100681.53;;;4.39;62.77
63500;BME280;49654;51.142;14.924;2024-01-30T02:16:54;100666.78;;;4.29;62.84
63500;BME280;49654;51.142;14.924;2024-01-30T02:19:21;100666.69;;;4.30;63.34
63500;BME280;49654;51.142;14.924;2024-01-30T02:21:49;100684.97;;;4.25;63.10
63500;BME280;49654;51.142;14.924;2024-01-30T02:24:16;100654.88;;;4.13;63.63
63500;BME280;49654;51.142;14.924;2024-01-30T02:26:43;100669.66;;;4.24;63.24
63500;BME280;49654;51.142;14.924;2024-01-30T02:29:10;100667.16;;;4.22;63.63
63500;BME280;49654;51.142;14.924;2024-01-30T02:31:37;100653.25;;;4.12;63.31
63500;BME280;49654;51.142;14.924;2024-01-30T02:34:04;100649.94;;;4.10;63.47
63500;BME280;49654;51.142;14.924;2024-01-30T02:36:31;100559.41;;;3.51;63.52
63500;BME280;49654;51.142;14.924;2024-01-30T02:38:59;100493.47;;;3.10;63.48
63500;BME280;49654;51.142;14.924;2024-01-30T02:41:26;100636.72;;;4.02;63.45
63500;BME280;49654;51.142;14.924;2024-01-30T02:43:53;100661.31;;;4.20;63.39
63500;BME280;49654;51.142;14.924;2024-01-30T02:46:20;100644.53;;;4.00;63.35
63500;BME280;49654;51.142;14.924;2024-01-30T02:48:47;100665.34;;;4.24;62.97
63500;BME280;49654;51.142;14.924;2024-01-30T02:51:14;100531.06;;;3.38;63.05
63500;BME280;49654;51.142;14.924;2024-01-30T02:53:41;100563.25;;;3.58;62.89
63500;BME280;49654;51.142;14.924;2024-01-30T02:56:10;100604.47;;;3.84;63.23
63500;BME280;49654;51.142;14.924;2024-01-30T02:58:37;100638.63;;;4.13;62.96
63500;BME280;49654;51.142;14.924;2024-01-30T03:01:04;100598.63;;;3.82;62.97
63500;BME280;49654;51.142;14.924;2024-01-30T03:03:31;100494.53;;;3.20;62.96
63500;BME280;49654;51.142;14.924;2024-01-30T03:05:59;100625.09;;;3.96;63.24
63500;BME280;49654;51.142;14.924;2024-01-30T03:08:26;100662.72;;;4.12;63.11
63500;BME280;49654;51.142;14.924;2024-01-30T03:10:53;100638.13;;;3.93;63.14
63500;BME280;49654;51.142;14.924;2024-01-30T03:13:22;100626.50;;;3.88;63.38
63500;BME280;49654;51.142;14.924;2024-01-30T03:15:50;100640.63;;;3.95;63.81
63500;BME280;49654;51.142;14.924;2024-01-30T03:18:17;100636.47;;;3.92;63.43
63500;BME280;49654;51.142;14.924;2024-01-30T03:20:44;100676.75;;;4.06;63.71
63500;BME280;49654;51.142;14.924;2024-01-30T03:23:11;100675.84;;;4.07;64.03
63500;BME280;49654;51.142;14.924;2024-01-30T03:25:38;100663.72;;;4.09;63.67
63500;BME280;49654;51.142;14.924;2024-01-30T03:28:05;100652.59;;;4.09;63.53
63500;BME280;49654;51.142;14.924;2024-01-30T03:30:34;100646.06;;;4.17;63.48
63500;BME280;49654;51.142;14.924;2024-01-30T03:33:01;100650.19;;;4.20;63.65
63500;BME280;49654;51.142;14.924;2024-01-30T03:35:28;100652.38;;;4.26;63.29
63500;BME280;49654;51.142;14.924;2024-01-30T03:37:55;100646.91;;;4.31;62.81
63500;BME280;49654;51.142;14.924;2024-01-30T03:40:22;100664.41;;;4.25;63.03
63500;BME280;49654;51.142;14.924;2024-01-30T03:42:49;100660.78;;;4.28;63.18
63500;BME280;49654;51.142;14.924;2024-01-30T03:45:15;100638.50;;;4.29;63.02
63500;BME280;49654;51.142;14.924;2024-01-30T03:47:46;100640.31;;;4.26;62.70
63500;BME280;49654;51.142;14.924;2024-01-30T03:50:13;100654.44;;;4.34;62.45
63500;BME280;49654;51.142;14.924;2024-01-30T03:52:40;100586.13;;;3.90;62.84
63500;BME280;49654;51.142;14.924;2024-01-30T03:55:08;100659.69;;;4.32;62.69
63500;BME280;49654;51.142;14.924;2024-01-30T03:57:35;100629.00;;;4.16;62.54
63500;BME280;49654;51.142;14.924;2024-01-30T04:00:02;100570.38;;;3.67;62.79
63500;BME280;49654;51.142;14.924;2024-01-30T04:02:30;100639.50;;;4.26;62.75
63500;BME280;49654;51.142;14.924;2024-01-30T04:04:59;100621.06;;;4.19;62.63
63500;BME280;49654;51.142;14.924;2024-01-30T04:07:25;100620.69;;;4.25;62.37
63500;BME280;49654;51.142;14.924;2024-01-30T04:09:52;100488.81;;;3.30;63.16
63500;BME280;49654;51.142;14.924;2024-01-30T04:12:19;100615.25;;;4.03;62.84
63500;BME280;49654;51.142;14.924;2024-01-30T04:14:46;100532.25;;;3.61;62.96
63500;BME280;49654;51.142;14.924;2024-01-30T04:17:13;100567.56;;;3.85;62.86
63500;BME280;49654;51.142;14.924;2024-01-30T04:19:40;100610.84;;;4.05;63.38
63500;BME280;49654;51.142;14.924;2024-01-30T04:22:08;100647.09;;;4.27;63.27
63500;BME280;49654;51.142;14.924;2024-01-30T04:24:35;100618.25;;;4.10;63.18
63500;BME280;49654;51.142;14.924;2024-01-30T04:27:02;100648.97;;;4.25;63.29
63500;BME280;49654;51.142;14.924;2024-01-30T04:29:29;100659.38;;;4.24;63.48
63500;BME280;49654;51.142;14.924;2024-01-30T04:31:58;100559.63;;;3.75;63.73
63500;BME280;49654;51.142;14.924;2024-01-30T04:34:25;100624.66;;;4.17;63.51
63500;BME280;49654;51.142;14.924;2024-01-30T04:36:52;100595.19;;;3.95;63.68
63500;BME280;49654;51.142;14.924;2024-01-30T04:39:20;100643.94;;;4.24;63.42
63500;BME280;49654;51.142;14.924;2024-01-30T04:41:47;100604.47;;;4.11;63.46
63500;BME280;49654;51.142;14.924;2024-01-30T04:44:14;100631.59;;;4.29;63.29
63500;BME280;49654;51.142;14.924;2024-01-30T04:46:41;100615.00;;;4.20;63.07
63500;BME280;49654;51.142;14.924;2024-01-30T04:49:08;100595.25;;;4.21;62.87
63500;BME280;49654;51.142;14.924;2024-01-30T04:51:35;100598.19;;;4.42;62.46
63500;BME280;49654;51.142;14.924;2024-01-30T04:54:02;100624.25;;;4.50;62.39
63500;BME280;49654;51.142;14.924;2024-01-30T04:56:30;100557.66;;;4.06;62.41
63500;BME280;49654;51.142;14.924;2024-01-30T04:58:57;100591.34;;;4.28;62.42
63500;BME280;49654;51.142;14.924;2024-01-30T05:01:25;100510.03;;;3.87;62.13
63500;BME280;49654;51.142;14.924;2024-01-30T05:03:52;100621.25;;;4.56;62.11
63500;BME280;49654;51.142;14.924;2024-01-30T05:06:24;100616.31;;;4.53;62.18
63500;BME280;49654;51.142;14.924;2024-01-30T05:08:51;100619.50;;;4.44;62.57
63500;BME280;49654;51.142;14.924;2024-01-30T05:11:18;100549.78;;;4.09;62.28
63500;BME280;49654;51.142;14.924;2024-01-30T05:13:47;100588.28;;;4.36;62.54
63500;BME280;49654;51.142;14.924;2024-01-30T05:16:14;100517.72;;;3.87;62.48
63500;BME280;49654;51.142;14.924;2024-01-30T05:18:44;100577.44;;;4.18;62.76
63500;BME280;49654;51.142;14.924;2024-01-30T05:21:11;100499.91;;;3.71;62.90
63500;BME280;49654;51.142;14.924;2024-01-30T05:23:38;100466.75;;;3.54;63.35
63500;BME280;49654;51.142;14.924;2024-01-30T05:26:05;100613.31;;;4.34;63.36
63500;BME280;49654;51.142;14.924;2024-01-30T05:28:32;100614.75;;;4.38;63.28
63500;BME280;49654;51.142;14.924;2024-01-30T05:31:01;100597.91;;;4.19;63.52
63500;BME280;49654;51.142;14.924;2024-01-30T05:33:28;100622.03;;;4.31;63.62
63500;BME280;49654;51.142;14.924;2024-01-30T05:35:55;100591.53;;;4.12;63.41
63500;BME280;49654;51.142;14.924;2024-01-30T05:38:22;100627.69;;;4.36;63.87
63500;BME280;49654;51.142;14.924;2024-01-30T05:40:49;100628.78;;;4.19;64.28
63500;BME280;49654;51.142;14.924;2024-01-30T05:43:16;100579.94;;;3.92;63.83
63500;BME280;49654;51.142;14.924;2024-01-30T05:45:43;100637.22;;;4.21;63.98
63500;BME280;49654;51.142;14.924;2024-01-30T05:48:11;100632.09;;;4.21;63.96
63500;BME280;49654;51.142;14.924;2024-01-30T05:50:38;100627.69;;;4.36;63.74
63500;BME280;49654;51.142;14.924;2024-01-30T05:53:05;100533.50;;;3.68;63.84
63500;BME280;49654;51.142;14.924;2024-01-30T05:55:32;100535.50;;;3.78;63.69
63500;BME280;49654;51.142;14.924;2024-01-30T05:57:59;100632.66;;;4.39;63.42
63500;BME280;49654;51.142;14.924;2024-01-30T06:00:26;100615.84;;;4.21;64.00
63500;BME280;49654;51.142;14.924;2024-01-30T06:02:53;100621.44;;;4.40;63.62
63500;BME280;49654;51.142;14.924;2024-01-30T06:05:22;100621.94;;;4.33;63.82
63500;BME280;49654;51.142;14.924;2024-01-30T06:07:49;100623.38;;;4.37;63.49
63500;BME280;49654;51.142;14.924;2024-01-30T06:10:15;100613.50;;;4.31;63.62
63500;BME280;49654;51.142;14.924;2024-01-30T06:12:42;100601.84;;;4.25;63.79
63500;BME280;49654;51.142;14.924;2024-01-30T06:15:09;100626.34;;;4.31;63.81
63500;BME280;49654;51.142;14.924;2024-01-30T06:17:39;100623.59;;;4.34;64.01
63500;BME280;49654;51.142;14.924;2024-01-30T06:20:06;100624.72;;;4.30;63.85
63500;BME280;49654;51.142;14.924;2024-01-30T06:22:35;100635.03;;;4.15;64.21
63500;BME280;49654;51.142;14.924;2024-01-30T06:25:02;100637.94;;;4.23;64.09
63500;BME280;49654;51.142;14.924;2024-01-30T06:27:29;100425.38;;;3.05;63.63
63500;BME280;49654;51.142;14.924;2024-01-30T06:29:56;100625.22;;;4.35;63.77
63500;BME280;49654;51.142;14.924;2024-01-30T06:32:23;100618.81;;;4.27;63.99
63500;BME280;49654;51.142;14.924;2024-01-30T06:34:50;100577.06;;;3.97;63.58
63500;BME280;49654;51.142;14.924;2024-01-30T06:37:17;100612.66;;;4.30;63.52
63500;BME280;49654;51.142;14.924;2024-01-30T06:39:45;100623.28;;;4.38;63.05
63500;BME280;49654;51.142;14.924;2024-01-30T06:42:12;100615.28;;;4.43;62.96
63500;BME280;49654;51.142;14.924;2024-01-30T06:44:39;100604.88;;;4.44;63.08
63500;BME280;49654;51.142;14.924;2024-01-30T06:47:06;100597.88;;;4.34;63.02
63500;BME280;49654;51.142;14.924;2024-01-30T06:49:33;100540.28;;;3.96;63.13
63500;BME280;49654;51.142;14.924;2024-01-30T06:52:00;100622.19;;;4.55;62.77
63500;BME280;49654;51.142;14.924;2024-01-30T06:54:27;100621.88;;;4.47;62.89
63500;BME280;49654;51.142;14.924;2024-01-30T06:56:55;100477.88;;;3.67;62.83
63500;BME280;49654;51.142;14.924;2024-01-30T06:59:22;100515.88;;;3.89;62.61
63500;BME280;49654;51.142;14.924;2024-01-30T07:01:49;100614.97;;;4.47;62.54
63500;BME280;49654;51.142;14.924;2024-01-30T07:04:16;100602.31;;;4.44;62.08
63500;BME280;49654;51.142;14.924;2024-01-30T07:06:44;100615.31;;;4.56;62.50
63500;BME280;49654;51.142;14.924;2024-01-30T07:09:11;100600.84;;;4.40;62.66
63500;BME280;49654;51.142;14.924;2024-01-30T07:11:39;100624.97;;;4.52;62.89
63500;BME280;49654;51.142;14.924;2024-01-30T07:14:09;100615.69;;;4.49;62.64
63500;BME280;49654;51.142;14.924;2024-01-30T07:16:36;100611.28;;;4.51;62.45
63500;BME280;49654;51.142;14.924;2024-01-30T07:19:03;100617.44;;;4.49;62.72
63500;BME280;49654;51.142;14.924;2024-01-30T07:21:30;100618.59;;;4.58;62.99
63500;BME280;49654;51.142;14.924;2024-01-30T07:23:57;100621.06;;;4.46;63.49
63500;BME280;49654;51.142;14.924;2024-01-30T07:26:24;100540.31;;;4.09;62.92
63500;BME280;49654;51.142;14.924;2024-01-30T07:28:51;100602.22;;;4.46;63.22
63500;BME280;49654;51.142;14.924;2024-01-30T07:31:19;100522.72;;;4.03;63.12
63500;BME280;49654;51.142;14.924;2024-01-30T07:33:48;100621.72;;;4.63;63.12
63500;BME280;49654;51.142;14.924;2024-01-30T07:36:15;100614.88;;;4.62;62.79
63500;BME280;49654;51.142;14.924;2024-01-30T07:38:42;100613.88;;;4.64;63.12
63500;BME280;49654;51.142;14.924;2024-01-30T07:41:09;100629.53;;;4.74;62.90
63500;BME280;49654;51.142;14.924;2024-01-30T07:43:38;100620.06;;;4.74;62.44
63500;BME280;49654;51.142;14.924;2024-01-30T07:46:05;100612.44;;;4.73;62.49
63500;BME280;49654;51.142;14.924;2024-01-30T07:48:33;100595.97;;;4.63;62.67
63500;BME280;49654;51.142;14.924;2024-01-30T07:51:00;100609.25;;;4.69;62.58
63500;BME280;49654;51.142;14.924;2024-01-30T07:53:29;100611.19;;;4.78;62.62
63500;BME280;49654;51.142;14.924;2024-01-30T07:55:56;100621.81;;;4.87;62.43
63500;BME280;49654;51.142;14.924;2024-01-30T07:58:23;100617.50;;;4.87;62.03
63500;BME280;49654;51.142;14.924;2024-01-30T08:00:52;100613.91;;;4.90;61.74
63500;BME280;49654;51.142;14.924;2024-01-30T08:03:19;100581.97;;;4.80;61.72
63500;BME280;49654;51.142;14.924;2024-01-30T08:05:48;100562.00;;;4.83;61.63
63500;BME280;49654;51.142;14.924;2024-01-30T08:08:15;100582.50;;;4.85;61.60
63500;BME280;49654;51.142;14.924;2024-01-30T08:10:42;100529.56;;;4.42;61.35
63500;BME280;49654;51.142;14.924;2024-01-30T08:13:09;100533.59;;;4.59;61.40
63500;BME280;49654;51.142;14.924;2024-01-30T08:15:36;100623.06;;;5.19;61.00
63500;BME280;49654;51.142;14.924;2024-01-30T08:18:03;100619.66;;;5.32;60.72
63500;BME280;49654;51.142;14.924;2024-01-30T08:20:31;100610.56;;;5.39;60.39
63500;BME280;49654;51.142;14.924;2024-01-30T08:22:59;100624.34;;;5.50;59.91
63500;BME280;49654;51.142;14.924;2024-01-30T08:25:26;100612.38;;;5.62;59.50
63500;BME280;49654;51.142;14.924;2024-01-30T08:27:53;100541.63;;;5.42;58.95
63500;BME280;49654;51.142;14.924;2024-01-30T08:30:20;100614.31;;;6.08;58.21
63500;BME280;49654;51.142;14.924;2024-01-30T08:32:47;100591.88;;;5.85;57.75
63500;BME280;49654;51.142;14.924;2024-01-30T08:35:14;100580.06;;;6.06;57.28
63500;BME280;49654;51.142;14.924;2024-01-30T08:37:42;100605.09;;;6.63;56.25
63500;BME280;49654;51.142;14.924;2024-01-30T08:40:10;100575.41;;;6.58;55.66
63500;BME280;49654;51.142;14.924;2024-01-30T08:42:37;100590.22;;;6.67;55.39
63500;BME280;49654;51.142;14.924;2024-01-30T08:45:05;100577.94;;;6.82;54.63
63500;BME280;49654;51.142;14.924;2024-01-30T08:47:32;100612.00;;;7.32;54.41
63500;BME280;49654;51.142;14.924;2024-01-30T08:49:59;100447.28;;;6.23;54.15
63500;BME280;49654;51.142;14.924;2024-01-30T08:52:26;100600.44;;;7.69;53.46
63500;BME280;49654;51.142;14.924;2024-01-30T08:54:53;100591.00;;;7.91;52.30
63500;BME280;49654;51.142;14.924;2024-01-30T08:57:21;100599.84;;;7.66;53.18
63500;BME280;49654;51.142;14.924;2024-01-30T08:59:48;100605.44;;;7.93;52.52
63500;BME280;49654;51.142;14.924;2024-01-30T09:02:15;100601.31;;;7.47;53.36
63500;BME280;49654;51.142;14.924;2024-01-30T09:04:43;100578.75;;;7.05;54.08
63500;BME280;49654;51.142;14.924;2024-01-30T09:07:10;100616.91;;;7.01;54.93
63500;BME280;49654;51.142;14.924;2024-01-30T09:09:39;100602.69;;;6.84;55.15
63500;BME280;49654;51.142;14.924;2024-01-30T09:12:07;100611.47;;;6.70;56.12
63500;BME280;49654;51.142;14.924;2024-01-30T09:14:37;100593.34;;;6.48;56.27
63500;BME280;49654;51.142;14.924;2024-01-30T09:17:05;100592.84;;;6.78;56.15
63500;BME280;49654;51.142;14.924;2024-01-30T09:19:32;100503.38;;;5.97;56.56
63500;BME280;49654;51.142;14.924;2024-01-30T09:21:59;100557.91;;;6.50;56.20
63500;BME280;49654;51.142;14.924;2024-01-30T09:24:26;100596.34;;;6.77;55.84
63500;BME280;49654;51.142;14.924;2024-01-30T09:26:54;100585.34;;;6.86;55.95
63500;BME280;49654;51.142;14.924;2024-01-30T09:29:21;100591.09;;;6.90;55.60
63500;BME280;49654;51.142;14.924;2024-01-30T09:31:49;100547.75;;;6.71;55.98
63500;BME280;49654;51.142;14.924;2024-01-30T09:34:16;100591.81;;;7.03;55.61
63500;BME280;49654;51.142;14.924;2024-01-30T09:36:43;100597.44;;;7.19;55.14
63500;BME280;49654;51.142;14.924;2024-01-30T09:39:10;100600.75;;;7.33;54.81
63500;BME280;49654;51.142;14.924;2024-01-30T09:41:45;100535.81;;;7.03;54.19
63500;BME280;49654;51.142;14.924;2024-01-30T09:44:16;100547.28;;;7.11;53.92
63500;BME280;49654;51.142;14.924;2024-01-30T09:46:43;100534.38;;;7.11;54.43
63500;BME280;49654;51.142;14.924;2024-01-30T09:49:13;100609.16;;;7.23;54.03
63500;BME280;49654;51.142;14.924;2024-01-30T09:51:41;100606.84;;;7.09;54.04
63500;BME280;49654;51.142;14.924;2024-01-30T09:54:09;100616.69;;;7.04;54.81
63500;BME280;49654;51.142;14.924;2024-01-30T09:56:36;100612.94;;;7.19;54.97
63500;BME280;49654;51.142;14.924;2024-01-30T09:59:03;100601.44;;;7.12;54.30
63500;BME280;49654;51.142;14.924;2024-01-30T10:01:31;100613.75;;;7.31;54.51
63500;BME280;49654;51.142;14.924;2024-01-30T10:03:58;100617.63;;;7.48;54.21
63500;BME280;49654;51.142;14.924;2024-01-30T10:06:26;100598.09;;;7.66;53.21
63500;BME280;49654;51.142;14.924;2024-01-30T10:08:54;100520.19;;;6.94;53.26
63500;BME280;49654;51.142;14.924;2024-01-30T10:11:21;100606.13;;;7.41;52.98
63500;BME280;49654;51.142;14.924;2024-01-30T10:13:49;100612.19;;;7.62;53.67
63500;BME280;49654;51.142;14.924;2024-01-30T10:16:15;100588.09;;;7.62;52.62
63500;BME280;49654;51.142;14.924;2024-01-30T10:18:43;100507.50;;;7.13;52.81
63500;BME280;49654;51.142;14.924;2024-01-30T10:21:10;100516.66;;;7.17;53.54
63500;BME280;49654;51.142;14.924;2024-01-30T10:23:38;100565.59;;;7.41;52.91
63500;BME280;49654;51.142;14.924;2024-01-30T10:26:07;100558.53;;;7.55;53.21
63500;BME280;49654;51.142;14.924;2024-01-30T10:28:34;100571.25;;;7.90;53.21
63500;BME280;49654;51.142;14.924;2024-01-30T10:31:01;100565.41;;;7.76;52.21
63500;BME280;49654;51.142;14.924;2024-01-30T10:33:29;100551.38;;;7.58;52.18
63500;BME280;49654;51.142;14.924;2024-01-30T10:36:00;100472.72;;;7.06;52.33
63500;BME280;49654;51.142;14.924;2024-01-30T10:38:29;100566.38;;;7.64;52.33
63500;BME280;49654;51.142;14.924;2024-01-30T10:40:58;100517.63;;;7.48;52.59
63500;BME280;49654;51.142;14.924;2024-01-30T10:43:30;100518.41;;;7.71;52.90
63500;BME280;49654;51.142;14.924;2024-01-30T10:46:03;100533.88;;;8.15;52.45
63500;BME280;49654;51.142;14.924;2024-01-30T10:48:36;100514.66;;;7.96;51.45
63500;BME280;49654;51.142;14.924;2024-01-30T10:51:09;100437.41;;;7.50;52.20
63500;BME280;49654;51.142;14.924;2024-01-30T10:53:39;100528.50;;;8.07;51.14
63500;BME280;49654;51.142;14.924;2024-01-30T10:56:08;100493.31;;;7.83;51.72
63500;BME280;49654;51.142;14.924;2024-01-30T10:58:36;100532.09;;;8.15;51.49
63500;BME280;49654;51.142;14.924;2024-01-30T11:01:04;100552.03;;;8.24;51.55
63500;BME280;49654;51.142;14.924;2024-01-30T11:03:33;100394.31;;;7.07;51.69
63500;BME280;49654;51.142;14.924;2024-01-30T11:06:02;100545.91;;;8.25;52.04
63500;BME280;49654;51.142;14.924;2024-01-30T11:08:32;100555.63;;;8.44;51.72
63500;BME280;49654;51.142;14.924;2024-01-30T11:10:59;100536.06;;;8.19;51.48
63500;BME280;49654;51.142;14.924;2024-01-30T11:13:30;100555.63;;;8.44;51.67
63500;BME280;49654;51.142;14.924;2024-01-30T11:16:00;100539.00;;;8.47;51.40
63500;BME280;49654;51.142;14.924;2024-01-30T11:18:29;100562.22;;;8.79;51.34
63500;BME280;49654;51.142;14.924;2024-01-30T11:20:57;100431.13;;;7.85;51.64
63500;BME280;49654;51.142;14.924;2024-01-30T11:23:25;100547.41;;;8.39;52.08
63500;BME280;49654;51.142;14.924;2024-01-30T11:25:53;100466.53;;;7.84;51.87
63500;BME280;49654;51.142;14.924;2024-01-30T11:28:21;100545.00;;;8.26;52.61
63500;BME280;49654;51.142;14.924;2024-01-30T11:30:50;100548.97;;;8.51;51.76
63500;BME280;49654;51.142;14.924;2024-01-30T11:33:27;100554.25;;;8.29;52.44
63500;BME280;49654;51.142;14.924;2024-01-30T11:35:57;100542.66;;;8.23;52.42
63500;BME280;49654;51.142;14.924;2024-01-30T11:38:25;100551.03;;;8.48;52.42
63500;BME280;49654;51.142;14.924;2024-01-30T11:40:53;100534.75;;;8.67;52.06
63500;BME280;49654;51.142;14.924;2024-01-30T11:43:20;100530.44;;;8.77;51.09
63500;BME280;49654;51.142;14.924;2024-01-30T11:45:49;100553.56;;;8.69;50.83
63500;BME280;49654;51.142;14.924;2024-01-30T11:48:16;100559.19;;;8.32;52.20
63500;BME280;49654;51.142;14.924;2024-01-30T11:50:44;100537.13;;;8.49;52.17
63500;BME280;49654;51.142;14.924;2024-01-30T11:53:11;100514.19;;;8.23;51.65
63500;BME280;49654;51.142;14.924;2024-01-30T11:55:38;100546.81;;;8.36;52.43
63500;BME280;49654;51.142;14.924;2024-01-30T11:58:05;100550.06;;;8.49;51.62
63500;BME280;49654;51.142;14.924;2024-01-30T12:00:32;100546.09;;;8.45;51.40
63500;BME280;49654;51.142;14.924;2024-01-30T12:03:01;100557.25;;;8.13;52.56
63500;BME280;49654;51.142;14.924;2024-01-30T12:05:29;100561.47;;;8.46;51.96
63500;BME280;49654;51.142;14.924;2024-01-30T12:07:56;100552.94;;;7.70;52.65
63500;BME280;49654;51.142;14.924;2024-01-30T12:10:24;100461.34;;;7.20;54.04
63500;BME280;49654;51.142;14.924;2024-01-30T12:12:52;100541.34;;;8.18;53.30
63500;BME280;49654;51.142;14.924;2024-01-30T12:15:21;100552.75;;;8.26;52.54
63500;BME280;49654;51.142;14.924;2024-01-30T12:17:48;100555.44;;;8.57;52.34
63500;BME280;49654;51.142;14.924;2024-01-30T12:20:19;100512.28;;;8.25;51.52
63500;BME280;49654;51.142;14.924;2024-01-30T12:22:48;100532.94;;;8.88;50.38
63500;BME280;49654;51.142;14.924;2024-01-30T12:25:17;100515.63;;;8.89;50.88
63500;BME280;49654;51.142;14.924;2024-01-30T12:27:45;100506.69;;;8.72;49.94
63500;BME280;49654;51.142;14.924;2024-01-30T12:30:16;100541.41;;;8.90;50.19
63500;BME280;49654;51.142;14.924;2024-01-30T12:32:45;100534.09;;;8.95;49.12
63500;BME280;49654;51.142;14.924;2024-01-30T12:35:13;100532.81;;;8.90;50.71
63500;BME280;49654;51.142;14.924;2024-01-30T12:37:43;100533.94;;;8.97;49.12
63500;BME280;49654;51.142;14.924;2024-01-30T12:40:10;100526.69;;;9.41;48.94
63500;BME280;49654;51.142;14.924;2024-01-30T12:42:39;100523.22;;;9.90;47.92
63500;BME280;49654;51.142;14.924;2024-01-30T12:45:06;100502.84;;;10.05;46.91
63500;BME280;49654;51.142;14.924;2024-01-30T12:47:34;100524.84;;;10.11;46.54
63500;BME280;49654;51.142;14.924;2024-01-30T12:50:01;100413.44;;;9.70;46.20
63500;BME280;49654;51.142;14.924;2024-01-30T12:52:35;100449.50;;;10.40;44.83